Time;durP1;ratioP1;P1;durP2;ratioP2;P2;SDS_P1;SDS_P2;PMS_P1;PMS_P2;Temp;Humidity;BMP_temperature;BMP_pressure;BME280_temperature;BME280_humidity;BME280_pressure;Samples;Min_cycle;Max_cycle;Signal;HPM_P1;HPM_P2
2022/02/20 00:01:20;;;;;;;1.93;0.90;;;5.60;63.20;;;5.64;54.77;97581.00;6236242;23;20026;-42
2022/02/20 00:03:47;;;;;;;3.40;1.70;;;5.60;64.40;;;5.61;55.69;97597.97;6235530;23;20321;-41
2022/02/20 00:06:17;;;;;;;3.63;1.23;;;5.60;66.00;;;5.61;55.07;97584.75;6235230;23;20180;-41
2022/02/20 00:08:45;;;;;;;3.13;1.37;;;5.60;65.90;;;5.55;55.56;97573.91;6235303;23;20225;-44
2022/02/20 00:11:13;;;;;;;4.17;1.10;;;5.60;65.50;;;5.53;56.28;97576.66;6235760;23;20020;-42
2022/02/20 00:13:40;;;;;;;1.57;1.03;;;5.50;67.40;;;5.52;55.39;97565.28;6235827;23;20020;-45
2022/02/20 00:16:09;;;;;;;8.17;1.70;;;5.50;66.10;;;5.39;57.72;97562.00;6235113;23;20018;-44
2022/02/20 00:18:37;;;;;;;1.60;1.17;;;5.40;68.70;;;5.48;55.28;97540.06;6235005;23;20278;-41
2022/02/20 00:21:05;;;;;;;4.00;1.30;;;5.40;68.60;;;5.52;56.38;97530.94;6234656;23;20030;-42
2022/02/20 00:23:32;;;;;;;3.83;1.40;;;5.40;67.40;;;5.55;55.62;97527.19;6235441;23;20239;-42
2022/02/20 00:26:00;;;;;;;3.17;1.67;;;5.40;67.30;;;5.61;55.52;97547.78;6208048;23;20016;-41
2022/02/20 00:28:28;;;;;;;2.67;1.43;;;5.50;68.90;;;5.51;56.11;97539.00;6233541;23;20020;-42
2022/02/20 00:30:56;;;;;;;3.47;1.00;;;5.40;68.00;;;5.52;56.31;97533.59;6233508;23;20016;-43
2022/02/20 00:33:24;;;;;;;5.43;1.50;;;5.40;68.50;;;5.55;56.28;97548.31;6235021;23;20012;-43
2022/02/20 00:35:53;;;;;;;4.13;1.67;;;5.40;67.90;;;5.46;57.35;97530.63;6208837;23;20012;-42
2022/02/20 00:38:20;;;;;;;4.43;1.43;;;5.40;69.10;;;5.47;55.83;97538.41;6234921;23;20020;-41
2022/02/20 00:40:48;;;;;;;1.70;1.33;;;5.40;68.40;;;5.40;56.80;97534.63;6233785;23;20213;-42
2022/02/20 00:43:17;;;;;;;2.20;1.10;;;5.40;68.50;;;5.44;57.08;97530.75;6208027;23;20310;-41
2022/02/20 00:45:46;;;;;;;2.17;1.03;;;5.40;68.30;;;5.43;56.46;97530.88;6235227;23;20024;-42
2022/02/20 00:48:18;;;;;;;5.20;1.63;;;5.40;69.00;;;5.45;55.98;97534.25;6207982;23;20034;-40
2022/02/20 00:50:48;;;;;;;2.83;1.10;;;5.30;68.30;;;5.47;56.46;97535.78;6209134;23;20026;-42
2022/02/20 00:53:16;;;;;;;3.47;1.90;;;5.40;68.10;;;5.42;57.40;97542.41;6207898;23;20038;-42
2022/02/20 00:55:44;;;;;;;4.30;1.17;;;5.40;68.80;;;5.35;57.73;97535.97;6234631;23;20016;-40
2022/02/20 00:58:12;;;;;;;5.13;1.33;;;5.30;69.50;;;5.35;57.48;97530.69;6236178;23;20011;-41
2022/02/20 01:00:41;;;;;;;1.83;0.90;;;5.40;69.40;;;5.34;57.85;97537.78;6209235;23;20022;-41
2022/02/20 01:03:09;;;;;;;2.20;1.10;;;5.40;69.40;;;5.35;56.73;97534.19;6209375;23;20032;-42
2022/02/20 01:05:37;;;;;;;2.77;1.00;;;5.40;68.40;;;5.39;57.58;97575.22;6209367;23;20028;-43
2022/02/20 01:08:07;;;;;;;3.47;1.63;;;5.40;68.60;;;5.40;57.03;97550.47;6236219;23;20016;-43
2022/02/20 01:10:37;;;;;;;2.87;1.13;;;5.40;68.60;;;5.34;58.40;97551.00;6208162;23;20028;-41
2022/02/20 01:13:05;;;;;;;4.07;1.07;;;5.40;68.80;;;5.35;56.92;97552.69;6207557;23;20024;-43
2022/02/20 01:15:34;;;;;;;3.03;1.30;;;5.40;69.00;;;5.44;57.62;97543.94;6207937;23;20023;-41
2022/02/20 01:18:03;;;;;;;3.40;1.57;;;5.40;69.00;;;5.46;57.36;97557.03;6235590;23;20018;-42
2022/02/20 01:20:30;;;;;;;4.23;1.50;;;5.40;68.20;;;5.40;57.65;97561.03;6235150;23;20287;-42
2022/02/20 01:22:59;;;;;;;3.77;1.63;;;5.40;68.40;;;5.41;57.61;97561.84;6206447;23;20334;-41
2022/02/20 01:25:27;;;;;;;4.83;1.23;;;5.40;68.10;;;5.41;57.35;97552.16;6235822;23;20030;-43
2022/02/20 01:27:57;;;;;;;3.23;1.20;;;5.40;69.00;;;5.39;57.52;97545.31;6235370;23;20237;-41
2022/02/20 01:30:25;;;;;;;2.23;1.10;;;5.40;68.50;;;5.37;57.52;97558.66;6235502;23;20024;-41
2022/02/20 01:32:53;;;;;;;2.93;1.20;;;5.40;68.20;;;5.36;57.81;97529.75;6208803;23;20039;-43
2022/02/20 01:35:21;;;;;;;5.70;2.73;;;5.40;68.20;;;5.44;56.67;97533.38;6207290;23;20225;-41
2022/02/20 01:37:49;;;;;;;2.87;1.17;;;5.50;67.50;;;5.39;57.47;97538.25;6207441;23;20020;-41
2022/02/20 01:40:18;;;;;;;2.47;1.10;;;5.50;68.20;;;5.39;57.41;97540.88;6207082;23;20016;-44
2022/02/20 01:42:46;;;;;;;2.93;1.37;;;5.50;68.00;;;5.42;57.32;97531.84;6209793;23;20020;-41
2022/02/20 01:45:16;;;;;;;3.53;1.50;;;5.50;68.30;;;5.39;58.07;97526.81;6233546;23;20024;-42
2022/02/20 01:47:44;;;;;;;6.97;1.40;;;5.50;68.20;;;5.42;57.24;97545.88;6236194;23;20201;-42
2022/02/20 01:50:15;;;;;;;3.33;1.30;;;5.50;67.90;;;5.42;56.68;97530.03;6182264;23;20046;-41
2022/02/20 01:52:48;;;;;;;2.20;1.67;;;5.50;67.80;;;5.42;58.29;97542.41;6209795;23;20024;-41
2022/02/20 01:55:16;;;;;;;2.90;1.10;;;5.50;68.20;;;5.44;58.26;97543.94;6235037;23;20020;-41
2022/02/20 01:58:04;;;;;;;3.30;1.30;;;5.50;68.60;;;5.45;57.98;97553.56;6220437;23;20020;-41
2022/02/20 02:00:42;;;;;;;1.83;1.00;;;5.50;68.50;;;5.44;57.92;97562.44;6209901;23;20234;-41
2022/02/20 02:03:30;;;;;;;4.07;1.90;;;5.50;68.20;;;5.45;58.12;97579.97;6214246;23;20024;-41
2022/02/20 02:06:05;;;;;;;4.27;1.30;;;5.60;68.30;;;5.50;57.46;97571.63;6205706;23;20326;-43
2022/02/20 02:08:35;;;;;;;6.93;2.63;;;5.50;68.40;;;5.54;58.32;97567.75;6209100;23;20028;-42
2022/02/20 02:11:12;;;;;;;3.67;1.50;;;5.60;69.50;;;5.49;58.80;97569.97;6210225;23;20026;-42
2022/02/20 02:13:58;;;;;;;5.80;1.50;;;5.60;69.30;;;5.51;58.50;97574.16;6246875;23;20030;-43
2022/02/20 02:16:55;;;;;;;3.50;1.23;;;5.60;69.20;;;5.54;57.66;97565.13;6231463;23;20027;-43
2022/02/20 02:19:44;;;;;;;2.47;1.00;;;5.60;69.00;;;5.58;57.74;97573.63;6188755;23;20210;-43
2022/02/20 02:22:23;;;;;;;5.13;1.83;;;5.60;68.90;;;5.62;58.07;97564.47;6245510;23;20012;-43
2022/02/20 02:25:05;;;;;;;2.90;1.73;;;5.70;68.90;;;5.65;57.91;97558.94;6245120;23;20026;-43
2022/02/20 02:27:47;;;;;;;3.20;1.20;;;5.70;68.60;;;5.65;57.94;97565.03;6210653;23;20024;-42
2022/02/20 02:30:32;;;;;;;5.33;1.73;;;5.70;68.60;;;5.67;57.85;97552.53;6210658;23;20209;-45
2022/02/20 02:33:00;;;;;;;2.03;1.13;;;5.70;69.30;;;5.73;57.64;97551.16;6208249;23;20016;-44
2022/02/20 02:35:28;;;;;;;2.53;1.20;;;5.70;68.30;;;5.78;57.95;97554.25;6208568;23;20038;-43
2022/02/20 02:37:57;;;;;;;5.13;1.50;;;5.80;68.20;;;5.77;57.18;97563.13;6236656;23;20210;-47
2022/02/20 02:40:26;;;;;;;4.50;1.77;;;5.80;68.10;;;5.83;56.95;97561.78;6210238;23;20016;-43
2022/02/20 02:42:54;;;;;;;3.90;1.40;;;5.80;68.90;;;5.84;56.75;97560.81;6210855;23;20038;-46
2022/02/20 02:45:27;;;;;;;4.33;1.40;;;5.80;67.90;;;5.87;57.38;97553.47;6209453;23;20199;-45
2022/02/20 02:47:56;;;;;;;3.07;1.30;;;5.90;68.10;;;5.85;57.97;97570.41;6208319;23;20024;-46
2022/02/20 02:50:26;;;;;;;5.60;1.97;;;5.80;68.50;;;5.86;58.37;97557.06;6236319;23;20218;-45
2022/02/20 02:52:57;;;;;;;4.00;1.17;;;5.90;68.60;;;5.87;57.17;97569.31;6210532;23;20024;-44
2022/02/20 02:55:25;;;;;;;4.43;1.53;;;5.90;68.10;;;5.90;57.71;97576.13;6208549;23;20224;-48
2022/02/20 02:57:53;;;;;;;3.67;1.50;;;5.90;68.30;;;5.89;58.07;97570.03;6209535;23;20016;-43
2022/02/20 03:00:21;;;;;;;5.53;1.40;;;5.90;68.70;;;5.90;57.84;97571.69;6208546;23;20020;-47
2022/02/20 03:02:49;;;;;;;16.27;5.30;;;5.90;68.70;;;5.93;57.67;97562.63;6208376;23;20015;-43
2022/02/20 03:05:17;;;;;;;3.33;1.57;;;5.90;68.60;;;5.88;58.07;97575.44;6236775;23;20209;-44
2022/02/20 03:07:46;;;;;;;3.70;1.67;;;5.90;69.50;;;5.87;58.52;97584.31;6209219;23;20310;-46
2022/02/20 03:10:15;;;;;;;6.77;1.90;;;5.90;69.90;;;5.94;58.85;97582.00;6209628;23;20022;-45
2022/02/20 03:12:43;;;;;;;4.77;1.20;;;5.90;70.20;;;5.93;58.03;97596.97;6208558;23;20016;-44
2022/02/20 03:15:11;;;;;;;3.03;1.47;;;5.90;70.60;;;5.90;59.28;97584.88;6209728;23;20024;-43
2022/02/20 03:17:41;;;;;;;3.53;1.70;;;5.90;70.00;;;5.97;58.08;97601.09;6184419;23;20038;-43
2022/02/20 03:20:10;;;;;;;5.57;2.00;;;5.90;70.30;;;5.99;58.27;97611.50;6208413;23;20151;-44
2022/02/20 03:22:42;;;;;;;9.03;3.20;;;5.90;69.90;;;6.01;58.06;97606.91;6209579;23;20017;-44
2022/02/20 03:25:10;;;;;;;3.20;1.70;;;6.00;70.00;;;6.03;58.39;97616.41;6210286;23;20058;-46
2022/02/20 03:27:41;;;;;;;3.77;1.47;;;6.00;70.00;;;6.02;58.37;97606.78;6184643;23;20323;-44
2022/02/20 03:30:15;;;;;;;1.92;1.05;;;6.00;69.90;;;6.06;57.85;97608.19;6206932;23;20024;-44
2022/02/20 03:32:47;;;;;;;3.20;1.27;;;6.10;69.70;;;6.14;58.31;97604.06;6209112;23;20034;-44
2022/02/20 03:35:22;;;;;;;5.23;1.10;;;6.10;69.60;;;6.10;58.28;97608.78;6209210;23;20030;-44
2022/02/20 03:37:51;;;;;;;3.13;1.20;;;6.10;70.20;;;6.03;59.53;97618.19;6209719;23;20039;-43
2022/02/20 03:40:26;;;;;;;2.17;1.13;;;6.10;71.40;;;6.03;58.79;97621.69;6208618;23;20016;-46
2022/02/20 03:42:54;;;;;;;4.43;1.70;;;6.00;71.10;;;5.99;59.46;97620.28;6209634;23;20023;-46
2022/02/20 03:45:41;;;;;;;3.20;1.10;;;6.00;71.30;;;5.96;59.41;97606.50;6209657;23;20026;-45
2022/02/20 03:48:09;;;;;;;3.13;1.17;;;6.00;71.80;;;5.98;59.97;97613.31;6236900;23;20332;-47
2022/02/20 03:50:41;;;;;;;2.47;1.20;;;6.00;71.70;;;6.00;59.37;97611.38;6209215;23;20034;-43
2022/02/20 03:53:10;;;;;;;3.40;1.20;;;6.00;71.90;;;5.97;61.11;97613.44;6185735;23;20352;-44
2022/02/20 03:55:38;;;;;;;2.70;1.13;;;6.00;72.90;;;5.98;60.74;97609.84;6235944;23;20012;-44
2022/02/20 03:58:06;;;;;;;6.03;1.47;;;6.00;73.00;;;5.92;60.48;97609.38;6209435;23;20038;-44
2022/02/20 04:00:49;;;;;;;4.87;1.10;;;6.00;73.20;;;5.96;60.27;97609.97;6210330;23;20024;-43
2022/02/20 04:03:31;;;;;;;2.83;1.40;;;6.00;73.90;;;5.95;61.26;97613.56;6210301;23;20325;-43
2022/02/20 04:05:59;;;;;;;4.20;1.23;;;5.90;73.80;;;5.98;60.47;97617.78;6209678;23;20034;-41
2022/02/20 04:08:27;;;;;;;1.50;1.20;;;5.90;73.70;;;6.04;59.98;97628.63;6207512;23;20535;-43
2022/02/20 04:10:59;;;;;;;2.73;1.17;;;6.00;73.80;;;6.04;60.68;97644.50;6208934;23;20028;-44
2022/02/20 04:13:33;;;;;;;2.30;1.13;;;6.00;74.00;;;6.04;60.62;97641.03;6208304;23;20020;-45
2022/02/20 04:16:01;;;;;;;4.23;1.50;;;6.00;74.40;;;6.08;60.16;97645.91;6207918;23;20344;-44
2022/02/20 04:18:33;;;;;;;4.10;1.77;;;6.00;75.50;;;6.14;60.78;97647.19;6209121;23;20016;-44
2022/02/20 04:21:27;;;;;;;3.00;1.38;;;6.00;75.00;;;6.13;60.81;97642.88;6231397;23;20020;-43
2022/02/20 04:24:06;;;;;;;3.43;1.07;;;6.00;75.50;;;6.11;60.78;97660.69;6208918;23;20026;-42
2022/02/20 04:26:34;;;;;;;1.77;1.20;;;6.00;75.40;;;6.10;61.05;97656.34;6234224;23;20072;-43
2022/02/20 04:29:03;;;;;;;2.80;1.50;;;6.00;75.70;;;6.06;61.67;97652.31;6208165;23;20034;-43
2022/02/20 04:31:32;;;;;;;1.87;1.03;;;6.00;77.30;;;6.02;61.37;97658.81;6184666;23;20577;-46
2022/02/20 04:34:04;;;;;;;1.77;1.33;;;5.90;76.80;;;6.00;62.31;97644.91;6209010;23;20262;-42
2022/02/20 04:36:35;;;;;;;1.77;1.20;;;5.90;77.10;;;5.96;61.72;97646.97;6235281;23;20012;-42
2022/02/20 04:39:06;;;;;;;3.90;1.50;;;5.80;77.50;;;5.89;62.15;97662.50;6208802;23;20016;-51
2022/02/20 04:41:35;;;;;;;1.93;1.10;;;5.80;78.80;;;5.89;61.76;97661.63;6208798;23;20030;-43
2022/02/20 04:44:08;;;;;;;1.57;1.00;;;5.80;78.00;;;5.85;62.82;97665.53;6185828;23;20020;-45
2022/02/20 04:46:36;;;;;;;2.43;1.20;;;5.80;78.20;;;5.79;62.82;97673.97;6207308;23;20334;-46
2022/02/20 04:49:07;;;;;;;3.67;1.33;;;5.80;78.30;;;5.83;62.64;97668.28;6235306;23;20394;-43
2022/02/20 04:52:10;;;;;;;2.47;1.07;;;5.80;78.70;;;5.86;63.26;97673.31;6205109;23;20032;-42
2022/02/20 04:54:57;;;;;;;3.73;1.23;;;5.80;79.80;;;5.87;62.63;97672.38;6244415;23;20031;-44
2022/02/20 04:57:31;;;;;;;2.27;1.10;;;5.70;80.40;;;5.89;62.60;97680.13;6208746;23;20016;-44
2022/02/20 04:59:59;;;;;;;3.28;1.00;;;5.70;79.80;;;5.88;63.08;97671.38;6207697;23;20016;-47
2022/02/20 05:02:44;;;;;;;1.52;0.80;;;5.80;79.90;;;5.84;62.62;97680.53;6208060;23;20008;-43
2022/02/20 05:05:12;;;;;;;1.03;0.90;;;5.80;79.70;;;5.86;62.31;97673.31;6208389;23;20027;-43
2022/02/20 05:07:40;;;;;;;4.53;1.10;;;5.80;79.90;;;5.86;62.86;97670.69;6205824;23;20019;-47
2022/02/20 05:10:13;;;;;;;3.57;1.23;;;5.80;80.10;;;5.87;62.50;97672.38;6208258;23;20195;-42
2022/02/20 05:12:41;;;;;;;2.10;1.00;;;5.80;79.60;;;5.85;63.03;97671.63;6206764;23;20026;-44
2022/02/20 05:15:09;;;;;;;1.37;0.93;;;5.80;80.60;;;5.90;63.03;97672.09;6209019;23;20023;-45
2022/02/20 05:17:40;;;;;;;2.10;1.10;;;5.80;79.60;;;5.90;62.50;97664.16;6207804;23;20016;-45
2022/02/20 05:20:10;;;;;;;2.13;1.20;;;5.80;79.90;;;5.90;62.59;97672.09;6207188;23;20016;-43
2022/02/20 05:22:38;;;;;;;2.40;1.23;;;5.80;80.00;;;5.89;62.52;97654.56;6209007;23;20016;-44
2022/02/20 05:25:12;;;;;;;2.58;1.40;;;5.80;79.80;;;5.90;62.22;97666.81;6206983;23;20012;-43
2022/02/20 05:27:42;;;;;;;2.23;1.03;;;5.80;80.10;;;5.92;62.42;97662.22;6184131;23;20048;-45
2022/02/20 05:30:16;;;;;;;2.27;1.73;;;5.80;79.80;;;5.92;62.71;97659.56;6208154;23;20019;-44
2022/02/20 05:32:50;;;;;;;1.87;1.20;;;5.80;80.20;;;5.86;63.07;97654.00;6207151;23;20344;-42
2022/02/20 05:35:22;;;;;;;2.63;0.93;;;5.80;80.30;;;5.84;63.48;97664.69;6210134;23;20023;-43
2022/02/20 05:37:51;;;;;;;2.33;1.03;;;5.80;80.10;;;5.87;63.41;97655.66;6186598;23;20350;-44
2022/02/20 05:40:23;;;;;;;3.53;0.80;;;5.80;80.30;;;5.90;62.72;97664.16;6209780;23;20091;-44
2022/02/20 05:43:01;;;;;;;1.63;0.70;;;5.80;80.70;;;5.85;63.69;97669.00;6209669;23;20024;-43
2022/02/20 05:45:32;;;;;;;2.70;0.90;;;5.80;80.30;;;5.87;63.31;97671.50;6208379;23;20020;-44
2022/02/20 05:48:09;;;;;;;3.37;0.80;;;5.80;80.70;;;5.88;63.71;97665.28;6209888;23;20325;-44
2022/02/20 05:50:54;;;;;;;0.87;0.80;;;5.80;81.00;;;5.88;63.88;97671.38;6211446;23;20435;-43
2022/02/20 05:53:22;;;;;;;1.27;0.93;;;5.80;81.90;;;5.92;62.98;97656.09;6237291;23;20026;-44
2022/02/20 05:55:50;;;;;;;2.50;0.83;;;5.80;81.00;;;5.93;63.36;97660.41;6208823;23;20213;-47
2022/02/20 05:58:18;;;;;;;1.27;0.60;;;5.80;81.00;;;5.89;63.69;97659.84;6208693;23;20030;-46
2022/02/20 06:00:55;;;;;;;2.07;0.70;;;5.80;81.40;;;5.89;63.55;97649.28;6211283;23;20026;-42
2022/02/20 06:03:23;;;;;;;1.30;0.77;;;5.80;81.40;;;5.94;63.84;97645.41;6209367;23;20024;-42
2022/02/20 06:06:11;;;;;;;1.87;0.70;;;5.80;81.40;;;5.95;62.87;97649.72;6236035;23;20032;-45
2022/02/20 06:08:55;;;;;;;1.57;1.00;;;5.80;81.80;;;5.99;62.63;97667.00;6188082;23;20028;-43
2022/02/20 06:11:37;;;;;;;2.10;0.87;;;5.80;81.40;;;6.01;62.98;97665.94;6209339;23;20042;-41
2022/02/20 06:14:20;;;;;;;3.38;0.98;;;5.90;81.20;;;6.03;62.85;97671.91;6209411;23;20038;-42
2022/02/20 06:16:57;;;;;;;2.23;1.03;;;5.90;80.70;;;6.01;63.33;97680.94;6208791;23;20024;-40
2022/02/20 06:19:29;;;;;;;3.30;0.80;;;5.90;81.60;;;6.04;63.51;97680.69;6210417;23;20035;-40
2022/02/20 06:22:19;;;;;;;4.30;0.87;;;5.90;81.20;;;6.04;62.89;97686.78;6236345;23;20023;-40
2022/02/20 06:25:07;;;;;;;2.57;0.80;;;6.00;81.00;;;6.03;63.32;97694.84;6208351;23;20028;-41
2022/02/20 06:27:43;;;;;;;2.87;0.80;;;6.00;81.60;;;6.06;62.73;97699.88;6210332;23;20028;-42
2022/02/20 06:30:23;;;;;;;2.17;1.00;;;6.00;80.70;;;6.08;62.98;97701.41;6210172;23;20019;-41
2022/02/20 06:32:51;;;;;;;1.83;0.80;;;6.00;80.80;;;6.14;63.11;97705.34;6210598;23;20242;-41
2022/02/20 06:35:21;;;;;;;3.00;1.03;;;6.10;80.50;;;6.17;63.29;97710.38;6207795;23;20031;-42
2022/02/20 06:37:49;;;;;;;1.80;1.50;;;6.10;80.00;;;6.18;63.27;97705.91;6210303;23;20024;-41
2022/02/20 06:40:19;;;;;;;2.77;1.00;;;6.20;79.80;;;6.19;63.17;97708.44;6209249;23;20345;-41
2022/02/20 06:42:51;;;;;;;1.77;0.90;;;6.20;79.80;;;6.17;63.56;97714.84;6185895;23;20016;-41
2022/02/20 06:45:21;;;;;;;5.13;1.97;;;6.10;80.80;;;6.18;62.86;97711.19;6209806;23;20218;-46
2022/02/20 06:48:27;;;;;;;3.30;2.03;;;6.10;81.00;;;6.17;63.06;97706.91;6216200;23;20027;-41
2022/02/20 06:51:10;;;;;;;3.03;1.90;;;6.10;82.30;;;6.17;63.41;97713.00;6208724;23;20020;-41
2022/02/20 06:54:07;;;;;;;2.30;1.10;;;6.00;82.00;;;6.13;63.58;97718.69;6232619;23;20238;-43
2022/02/20 06:56:58;;;;;;;2.23;0.80;;;6.00;81.70;;;6.11;63.39;97719.66;6224103;23;20016;-40
2022/02/20 06:59:26;;;;;;;1.93;0.90;;;6.00;81.50;;;6.13;63.28;97724.81;6236608;23;20318;-41
2022/02/20 07:01:54;;;;;;;1.27;0.70;;;6.00;81.40;;;6.13;63.68;97732.75;6235789;23;20651;-41
2022/02/20 07:04:22;;;;;;;1.17;0.80;;;6.00;81.00;;;6.15;63.35;97730.81;6235729;23;20071;-41
2022/02/20 07:06:55;;;;;;;1.40;0.73;;;6.10;80.60;;;6.11;63.60;97730.22;6246488;23;20012;-40
2022/02/20 07:09:23;;;;;;;1.50;1.27;;;6.10;80.60;;;6.10;63.86;97730.34;6235938;23;20020;-41
2022/02/20 07:11:51;;;;;;;1.70;1.17;;;6.00;80.30;;;6.07;63.18;97733.28;6236905;23;20027;-41
2022/02/20 07:14:19;;;;;;;1.13;0.90;;;6.00;80.60;;;6.10;63.28;97730.34;6209811;23;20020;-41
2022/02/20 07:16:48;;;;;;;0.57;0.57;;;6.00;80.40;;;6.10;62.94;97727.72;6234208;23;20321;-41
2022/02/20 07:19:16;;;;;;;0.87;0.63;;;6.00;79.80;;;6.14;63.27;97736.22;6236205;23;20535;-42
2022/02/20 07:21:44;;;;;;;5.80;2.90;;;6.10;79.50;;;6.13;62.88;97739.81;6237234;23;20026;-42
2022/02/20 07:24:13;;;;;;;1.13;0.93;;;6.10;79.40;;;6.18;62.09;97745.56;6235672;23;20209;-41
2022/02/20 07:26:41;;;;;;;2.77;1.40;;;6.10;79.00;;;6.17;62.58;97744.75;6236304;23;20024;-41
2022/02/20 07:29:09;;;;;;;0.97;0.60;;;6.10;79.10;;;6.17;62.79;97735.97;6236663;23;20422;-41
2022/02/20 07:31:37;;;;;;;1.97;1.00;;;6.10;79.30;;;6.17;62.47;97742.09;6237347;23;20024;-41
2022/02/20 07:34:05;;;;;;;1.30;0.80;;;6.10;79.40;;;6.16;62.60;97727.19;6237484;23;20050;-40
2022/02/20 07:36:32;;;;;;;1.00;0.80;;;6.10;78.90;;;6.17;63.46;97730.69;6209607;23;20016;-41
2022/02/20 07:39:03;;;;;;;0.57;0.53;;;6.20;78.80;;;6.20;63.03;97733.88;6235935;23;20196;-41
2022/02/20 07:41:36;;;;;;;0.97;0.77;;;6.20;78.70;;;6.26;62.67;97728.09;6236475;23;20016;-41
2022/02/20 07:44:05;;;;;;;0.40;0.40;;;6.20;79.10;;;6.27;62.76;97729.75;6235393;23;20012;-41
2022/02/20 07:46:33;;;;;;;1.07;0.60;;;6.20;78.80;;;6.27;63.29;97728.94;6236708;23;20179;-44
2022/02/20 07:49:02;;;;;;;2.17;0.73;;;6.20;78.60;;;6.26;62.51;97725.44;6232780;23;20034;-40
2022/02/20 07:51:30;;;;;;;1.23;0.57;;;6.20;79.10;;;6.31;62.76;97725.88;6234161;23;20036;-40
2022/02/20 07:53:58;;;;;;;1.97;0.60;;;6.30;78.80;;;6.31;63.41;97728.50;6235655;23;20016;-40
2022/02/20 07:56:25;;;;;;;1.83;1.47;;;6.30;78.40;;;6.31;62.91;97725.88;6233764;23;20011;-41
2022/02/20 07:58:53;;;;;;;0.70;0.60;;;6.30;78.70;;;6.29;62.46;97727.81;6234165;23;20020;-40
2022/02/20 08:01:21;;;;;;;2.50;0.77;;;6.30;78.20;;;6.35;62.95;97720.31;6234351;23;20020;-41
2022/02/20 08:03:49;;;;;;;4.30;2.07;;;6.40;78.20;;;6.37;62.95;97710.47;6208478;23;20334;-40
2022/02/20 08:06:17;;;;;;;2.10;1.30;;;6.40;78.30;;;6.43;63.36;97707.28;6234522;23;20031;-42
2022/02/20 08:08:45;;;;;;;1.40;0.70;;;6.40;78.20;;;6.46;63.03;97697.28;6233821;23;20023;-42
2022/02/20 08:11:14;;;;;;;1.30;0.73;;;6.50;78.00;;;6.50;63.06;97690.75;6233894;23;20035;-40
2022/02/20 08:13:43;;;;;;;1.97;0.70;;;6.60;77.70;;;6.57;62.79;97693.69;6234225;23;20016;-40
2022/02/20 08:16:12;;;;;;;2.20;0.90;;;6.60;77.30;;;6.58;62.71;97703.28;6233925;23;20012;-40
2022/02/20 08:18:41;;;;;;;2.17;1.17;;;6.70;77.40;;;6.62;62.44;97704.69;6235351;23;20012;-41
2022/02/20 08:21:09;;;;;;;1.77;1.00;;;6.70;77.50;;;6.66;62.21;97711.38;6235168;23;20221;-41
2022/02/20 08:23:45;;;;;;;1.43;0.73;;;6.70;77.60;;;6.65;62.92;97714.16;6218190;23;20012;-41
2022/02/20 08:26:14;;;;;;;5.73;1.33;;;6.70;77.20;;;6.76;61.96;97713.22;6233383;23;20016;-40
2022/02/20 08:28:45;;;;;;;3.47;1.10;;;6.80;77.40;;;6.75;62.08;97715.03;6206965;23;20043;-41
2022/02/20 08:31:12;;;;;;;0.53;0.50;;;6.80;76.90;;;6.77;62.62;97715.75;6206635;23;20360;-40
2022/02/20 08:33:41;;;;;;;2.33;1.50;;;6.90;76.90;;;6.81;62.21;97725.06;6235992;23;20628;-41
2022/02/20 08:36:16;;;;;;;1.33;0.80;;;6.90;76.80;;;6.86;62.50;97720.22;6245654;23;20042;-41
2022/02/20 08:38:44;;;;;;;4.17;2.03;;;6.90;76.60;;;6.93;61.82;97724.97;6232669;23;20012;-41
2022/02/20 08:41:12;;;;;;;3.80;1.83;;;7.00;76.20;;;6.99;62.09;97737.66;6233335;23;20012;-42
2022/02/20 08:43:40;;;;;;;4.57;1.70;;;7.10;76.10;;;7.00;62.14;97747.25;6235200;23;20200;-40
2022/02/20 08:46:08;;;;;;;1.37;0.77;;;7.10;76.20;;;7.00;61.64;97732.22;6233758;23;20016;-41
2022/02/20 08:48:36;;;;;;;1.43;0.90;;;7.10;75.70;;;7.07;61.50;97728.03;6234352;23;20318;-43
2022/02/20 08:51:06;;;;;;;3.03;0.80;;;7.10;75.60;;;7.02;61.39;97732.09;6234422;23;20028;-42
2022/02/20 08:53:35;;;;;;;1.97;1.17;;;7.10;75.00;;;7.10;61.82;97732.25;6234132;23;20020;-41
2022/02/20 08:56:07;;;;;;;1.90;1.10;;;7.20;75.00;;;7.13;61.55;97741.72;6234302;23;20026;-44
2022/02/20 08:58:36;;;;;;;3.43;1.40;;;7.20;74.80;;;7.16;60.95;97737.00;6243523;23;20020;-41
2022/02/20 09:01:04;;;;;;;4.07;2.67;;;7.20;74.70;;;7.20;60.88;97738.38;6230137;23;20210;-41
2022/02/20 09:03:32;;;;;;;2.73;1.10;;;7.30;74.70;;;7.21;61.46;97747.16;6233263;23;20030;-42
2022/02/20 09:06:01;;;;;;;2.37;0.80;;;7.30;74.20;;;7.17;61.10;97743.13;6231685;23;20253;-40
2022/02/20 09:08:30;;;;;;;1.27;0.77;;;7.30;74.40;;;7.19;61.04;97749.09;6206073;23;20024;-45
2022/02/20 09:10:58;;;;;;;2.40;1.00;;;7.30;74.20;;;7.18;60.65;97745.63;6234719;23;20209;-42
2022/02/20 09:13:26;;;;;;;1.80;0.90;;;7.30;74.20;;;7.20;61.01;97737.56;6232950;23;20034;-40
2022/02/20 09:15:54;;;;;;;1.47;0.93;;;7.40;74.00;;;7.25;60.97;97740.59;6232420;23;20016;-40
2022/02/20 09:18:22;;;;;;;1.50;0.80;;;7.40;73.60;;;7.30;61.18;97749.81;6205220;23;20039;-40
2022/02/20 09:20:50;;;;;;;1.43;1.27;;;7.40;73.40;;;7.30;60.81;97718.03;6234133;23;20012;-40
2022/02/20 09:23:17;;;;;;;3.20;1.23;;;7.40;73.80;;;7.34;60.77;97715.13;6232499;23;20020;-42
2022/02/20 09:25:46;;;;;;;0.60;0.60;;;7.50;73.80;;;7.39;60.54;97724.31;6233920;23;20043;-40
2022/02/20 09:28:14;;;;;;;1.87;0.90;;;7.50;73.70;;;7.49;61.02;97722.50;6233048;23;20008;-41
2022/02/20 09:30:43;;;;;;;1.37;1.13;;;7.60;73.50;;;7.44;60.56;97734.50;6232976;23;20016;-41
2022/02/20 09:33:11;;;;;;;1.40;1.00;;;7.70;72.90;;;7.39;60.71;97723.50;6235415;23;20012;-41
2022/02/20 09:35:38;;;;;;;0.63;0.63;;;7.60;72.50;;;7.44;60.99;97716.81;6233464;23;20027;-41
2022/02/20 09:38:06;;;;;;;0.90;0.80;;;7.60;73.20;;;7.48;60.50;97709.38;6234913;23;20018;-40
2022/02/20 09:40:34;;;;;;;1.37;0.90;;;7.60;72.40;;;7.49;60.09;97716.38;6206515;23;20015;-43
2022/02/20 09:43:02;;;;;;;1.57;1.10;;;7.70;72.60;;;7.51;60.69;97701.19;6235260;23;20012;-41
2022/02/20 09:45:31;;;;;;;1.67;1.10;;;7.70;73.60;;;7.53;60.81;97698.41;6233933;23;20214;-40
2022/02/20 09:48:02;;;;;;;1.23;0.80;;;7.70;73.20;;;7.58;60.70;97701.44;6208465;23;20233;-40
2022/02/20 09:50:30;;;;;;;0.97;0.83;;;7.70;73.00;;;7.54;60.21;97697.41;6218352;23;20024;-40
2022/02/20 09:52:59;;;;;;;1.10;0.60;;;7.70;72.70;;;7.56;60.53;97703.38;6233623;23;20027;-40
2022/02/20 09:55:27;;;;;;;2.63;1.10;;;7.70;72.50;;;7.58;60.10;97698.78;6208720;23;20028;-39
2022/02/20 09:57:55;;;;;;;1.10;0.97;;;7.70;72.40;;;7.65;60.18;97686.66;6234151;23;20020;-39
2022/02/20 10:00:23;;;;;;;1.10;0.80;;;7.80;72.20;;;7.73;59.57;97684.13;6234355;23;20020;-39
2022/02/20 10:02:50;;;;;;;1.37;0.90;;;7.90;71.80;;;7.77;59.62;97696.09;6233748;23;20016;-40
2022/02/20 10:05:22;;;;;;;1.03;0.70;;;7.90;71.20;;;7.80;59.39;97687.88;6235330;23;20206;-40
2022/02/20 10:07:53;;;;;;;1.33;0.80;;;8.00;71.10;;;7.76;59.36;97685.66;6233642;23;20046;-40
2022/02/20 10:10:27;;;;;;;1.70;0.70;;;7.90;70.80;;;7.79;59.67;97686.22;6234541;23;20026;-41
2022/02/20 10:12:57;;;;;;;0.73;0.73;;;7.90;70.80;;;7.80;59.20;97687.06;6244251;23;20230;-42
2022/02/20 10:15:39;;;;;;;2.13;0.90;;;8.00;70.60;;;7.84;59.21;97694.56;6234564;23;20230;-41
2022/02/20 10:18:38;;;;;;;1.77;0.87;;;8.00;69.90;;;7.89;59.07;97699.47;6208969;23;20016;-42
2022/02/20 10:21:33;;;;;;;2.60;0.70;;;8.10;70.40;;;8.03;59.21;97690.22;6204128;23;20032;-41
2022/02/20 10:24:19;;;;;;;1.47;1.37;;;8.20;70.50;;;8.06;58.83;97704.03;6222978;23;20082;-41
2022/02/20 10:27:09;;;;;;;1.10;0.80;;;8.30;69.40;;;8.11;58.84;97689.50;6245963;23;20022;-41
2022/02/20 10:29:45;;;;;;;1.37;0.60;;;8.30;69.50;;;8.12;58.58;97699.09;6245137;23;20348;-40
2022/02/20 10:32:21;;;;;;;1.80;0.50;;;8.40;69.30;;;8.13;58.62;97695.47;6209769;23;20344;-41
2022/02/20 10:34:52;;;;;;;1.07;0.60;;;8.40;68.60;;;8.17;58.35;97684.44;6245460;23;20352;-42
2022/02/20 10:37:32;;;;;;;0.90;0.63;;;8.40;69.00;;;8.18;58.38;97699.38;6236178;23;20016;-42
2022/02/20 10:40:00;;;;;;;1.73;0.93;;;8.50;68.10;;;8.25;58.48;97683.72;6246939;23;20012;-43
2022/02/20 10:42:36;;;;;;;1.80;0.57;;;8.50;68.80;;;8.28;58.22;97671.00;6234781;23;20020;-41
2022/02/20 10:45:05;;;;;;;1.53;0.50;;;8.50;68.20;;;8.37;57.95;97663.13;6221431;23;20298;-41
2022/02/20 10:47:40;;;;;;;1.03;0.53;;;8.60;68.20;;;8.39;57.90;97669.13;6236087;23;20323;-43
2022/02/20 10:50:17;;;;;;;1.03;0.77;;;8.70;68.00;;;8.52;58.08;97669.66;6212129;23;20020;-41
2022/02/20 10:52:46;;;;;;;0.77;0.73;;;8.70;68.00;;;8.54;57.85;97650.94;6246746;23;20016;-42